Skip Navigation Links Skip Navigation Links

Current Weather

Buchanan Field, Concord, Calif.

For information only: do not use for flight planning or navigation.
Latest weather
Observation time Tuesday, October 19, 2021 12:53 AM PDT
Local time Tuesday, October 19, 2021 1:30 AM PDT
Flight conditions Visual Meteorological Conditions
Winds
Wind speed calm
Visibility 10 mi.
Sky condition
Ceiling unlimited
Sky clear
Temperature 49°F
Dewpoint 44°F
Altimeter 30.04 in.Hg
Derived measurements
Relative humidity 83%
Wind chill 49°F
Density altitude -639 ft.
Sea-level pressure 30.00 in.Hg
Climate data
Temperature minimum, last 24 hours 48°F
Temperature maximum, last 24 hours 66°F
Remarks
Fully automated report.
Automated weather observing station with precipitation discriminator.
METAR KCCR 190753Z AUTO 00000KT 10SM CLR 09/07 A3004 RMK AO2 SLP159 T00940067 401890089

Settings

Location code

InnerDrive.Weather 4.0.6770.0 Release CLR 4.0.30319.42000
Copyright ©2018 Inner Drive Technology. All rights reserved. Portions Copyright ©1986-2018 David Braverman.

Find weather

Site navigation


Skip Navigation Links

Place info

Page info

PayPal - The safer, easier way to pay online!

Return home.

Copyright ©2021 Inner Drive Technology. Purveyors of fine, hand-crafted computer software. Page printed 2021-10-19T08:30:39 UTC.